createdAt,value
2022-10-26T00:02:08.536Z,100.00
2022-10-26T00:04:53.926Z,100.00
2022-10-26T00:10:31.571Z,100.00
2022-10-26T00:13:17.044Z,100.00
2022-10-26T00:16:07.596Z,100.00
2022-10-26T00:18:52.824Z,100.00
2022-10-26T00:21:38.031Z,100.00
2022-10-26T00:24:23.053Z,100.00
2022-10-26T00:27:08.229Z,100.00
2022-10-26T00:29:53.071Z,100.00
2022-10-26T00:32:38.101Z,100.00
2022-10-26T00:35:34.736Z,100.00
2022-10-26T00:38:28.186Z,100.00
2022-10-26T00:41:22.580Z,100.00
2022-10-26T00:44:41.784Z,100.00
2022-10-26T00:47:29.603Z,100.00
2022-10-26T00:50:29.438Z,100.00
2022-10-26T00:53:15.527Z,100.00
2022-10-26T00:56:01.052Z,100.00
2022-10-26T00:58:46.520Z,100.00
2022-10-26T01:01:33.249Z,100.00
2022-10-26T01:04:18.867Z,100.00
2022-10-26T01:07:05.736Z,100.00
2022-10-26T01:09:51.345Z,100.00
2022-10-26T01:12:37.718Z,100.00
2022-10-26T01:15:27.266Z,100.00
2022-10-26T01:18:22.067Z,100.00
2022-10-26T01:21:32.313Z,100.00
2022-10-26T01:24:42.576Z,100.00
2022-10-26T01:27:39.080Z,100.00
2022-10-26T01:30:31.461Z,100.00
2022-10-26T01:33:41.796Z,100.00
2022-10-26T01:36:40.638Z,100.00
2022-10-26T01:39:45.260Z,100.00
2022-10-26T01:42:32.301Z,100.00
2022-10-26T01:45:18.452Z,100.00
2022-10-26T01:48:04.268Z,100.00
2022-10-26T01:50:53.340Z,100.00
2022-10-26T01:53:46.473Z,100.00
2022-10-26T01:56:36.529Z,100.00
2022-10-26T01:59:43.050Z,100.00
2022-10-26T02:02:43.586Z,100.00
2022-10-26T02:05:54.107Z,100.00
2022-10-26T02:09:21.920Z,100.00
2022-10-26T02:12:26.508Z,100.00
2022-10-26T02:15:20.609Z,100.00
2022-10-26T02:18:24.641Z,100.00
2022-10-26T02:21:17.147Z,100.00
2022-10-26T02:24:05.559Z,100.00
2022-10-26T02:26:53.084Z,100.00
2022-10-26T02:29:39.640Z,100.00
2022-10-26T02:32:27.318Z,100.00
2022-10-26T02:35:15.620Z,100.00
2022-10-26T02:38:04.252Z,100.00
2022-10-26T02:40:51.638Z,100.00
2022-10-26T02:43:41.702Z,100.00
2022-10-26T02:46:28.038Z,100.00
2022-10-26T02:49:13.642Z,100.00
2022-10-26T02:52:06.269Z,100.00
2022-10-26T02:54:59.218Z,100.00
2022-10-26T02:57:49.524Z,100.00
2022-10-26T03:00:34.547Z,100.00
2022-10-26T03:03:20.564Z,100.00
2022-10-26T03:06:05.579Z,100.00
2022-10-26T03:08:50.977Z,100.00
2022-10-26T03:11:35.731Z,100.00
2022-10-26T03:14:20.621Z,100.00
2022-10-26T03:17:06.026Z,100.00
2022-10-26T03:19:50.964Z,100.00
2022-10-26T03:22:36.179Z,100.00
2022-10-26T03:25:21.310Z,100.00
2022-10-26T03:28:07.250Z,100.00
2022-10-26T03:30:52.467Z,100.00
2022-10-26T03:36:27.529Z,100.00
2022-10-26T03:39:12.935Z,100.00
2022-10-26T03:41:58.034Z,100.00
2022-10-26T03:44:43.475Z,100.00
2022-10-26T03:47:28.234Z,100.00
2022-10-26T03:50:15.149Z,100.00
2022-10-26T03:53:00.306Z,100.00
2022-10-26T03:55:45.715Z,100.00
2022-10-26T03:58:30.441Z,100.00
2022-10-26T04:01:15.741Z,100.00
2022-10-26T04:04:00.646Z,100.00
2022-10-26T04:09:35.576Z,100.00
2022-10-26T04:12:20.884Z,100.00
2022-10-26T04:15:07.207Z,100.00
2022-10-26T04:18:00.311Z,100.00
2022-10-26T04:20:45.298Z,100.00
2022-10-26T04:23:30.478Z,100.00
2022-10-26T04:26:15.544Z,100.00
2022-10-26T04:29:00.805Z,100.00
2022-10-26T04:31:45.550Z,100.00
2022-10-26T04:34:30.660Z,100.00
2022-10-26T04:37:15.868Z,100.00
2022-10-26T04:40:01.061Z,100.00
2022-10-26T04:42:47.864Z,100.00
2022-10-26T04:45:33.995Z,100.00
2022-10-26T04:48:19.186Z,100.00
2022-10-26T04:51:04.413Z,100.00
2022-10-26T04:53:49.275Z,100.00
2022-10-26T04:56:34.546Z,100.00
2022-10-26T04:59:19.610Z,100.00
2022-10-26T05:02:04.846Z,100.00
2022-10-26T05:04:50.131Z,100.00
2022-10-26T05:07:35.211Z,100.00
2022-10-26T05:10:20.454Z,100.00
2022-10-26T05:13:05.619Z,100.00
2022-10-26T05:15:54.196Z,100.00
2022-10-26T05:18:38.941Z,100.00
2022-10-26T05:21:24.086Z,100.00
2022-10-26T05:24:11.689Z,100.00
2022-10-26T05:26:57.345Z,100.00
2022-10-26T05:29:42.556Z,100.00
2022-10-26T05:32:27.562Z,100.00
2022-10-26T05:35:12.670Z,100.00
2022-10-26T05:37:58.106Z,100.00
2022-10-26T05:40:54.153Z,100.00
2022-10-26T05:43:39.383Z,100.00
2022-10-26T05:46:24.189Z,100.00
2022-10-26T05:49:09.257Z,100.00
2022-10-26T05:51:53.991Z,100.00
2022-10-26T05:54:39.249Z,100.00
2022-10-26T05:57:24.381Z,100.00
2022-10-26T06:00:21.263Z,100.00
2022-10-26T06:03:25.871Z,100.00
2022-10-26T06:06:13.237Z,100.00
2022-10-26T06:08:58.405Z,100.00
2022-10-26T06:11:43.551Z,100.00
2022-10-26T06:14:28.636Z,100.00
2022-10-26T06:17:41.607Z,100.00
2022-10-26T06:20:54.300Z,100.00
2022-10-26T06:24:07.665Z,100.00
2022-10-26T06:27:23.161Z,100.00
2022-10-26T06:30:11.582Z,100.00
2022-10-26T06:33:05.648Z,100.00
2022-10-26T06:36:08.809Z,100.00
2022-10-26T06:39:08.997Z,100.00
2022-10-26T06:41:55.353Z,100.00
2022-10-26T06:44:40.558Z,100.00
2022-10-26T06:47:40.524Z,100.00
2022-10-26T06:50:38.390Z,100.00
2022-10-26T06:53:43.740Z,100.00
2022-10-26T06:56:29.254Z,100.00
2022-10-26T07:00:00.602Z,100.00
2022-10-26T07:02:46.139Z,100.00
2022-10-26T07:05:31.115Z,100.00
2022-10-26T07:08:16.158Z,100.00
2022-10-26T07:11:01.413Z,100.00
2022-10-26T07:13:46.702Z,100.00
2022-10-26T07:16:32.016Z,100.00
2022-10-26T07:19:16.887Z,100.00
2022-10-26T07:22:02.202Z,100.00
2022-10-26T07:24:50.679Z,100.00
2022-10-26T07:27:35.831Z,100.00
2022-10-26T07:30:21.008Z,100.00
2022-10-26T07:33:07.879Z,100.00
2022-10-26T07:35:54.076Z,100.00
2022-10-26T07:38:39.203Z,100.00
2022-10-26T07:41:24.401Z,100.00
2022-10-26T07:44:09.334Z,100.00
2022-10-26T07:46:54.177Z,100.00
2022-10-26T07:49:39.510Z,100.00
2022-10-26T07:52:24.478Z,100.00
2022-10-26T07:55:10.697Z,100.00
2022-10-26T07:57:56.014Z,100.00
2022-10-26T08:00:41.341Z,100.00
2022-10-26T08:03:26.373Z,100.00
2022-10-26T08:06:12.118Z,100.00
2022-10-26T08:08:56.839Z,100.00
2022-10-26T08:11:41.884Z,100.00
2022-10-26T08:14:27.104Z,100.00
2022-10-26T08:17:12.467Z,100.00
2022-10-26T08:19:57.639Z,100.00
2022-10-26T08:22:42.929Z,100.00
2022-10-26T08:25:28.198Z,100.00
2022-10-26T08:28:13.483Z,100.00
2022-10-26T08:30:58.839Z,100.00
2022-10-26T08:33:45.126Z,100.00
2022-10-26T08:36:30.608Z,100.00
2022-10-26T08:39:16.041Z,100.00
2022-10-26T08:42:12.045Z,100.00
2022-10-26T08:45:11.018Z,100.00
2022-10-26T08:48:01.536Z,100.00
2022-10-26T08:51:03.016Z,100.00
2022-10-26T08:53:57.316Z,100.00
2022-10-26T08:56:50.094Z,100.00
2022-10-26T08:59:41.651Z,100.00
2022-10-26T09:02:27.087Z,100.00
2022-10-26T09:05:17.945Z,100.00
2022-10-26T09:08:45.596Z,100.00
2022-10-26T09:11:39.607Z,100.00
2022-10-26T09:14:54.274Z,100.00
2022-10-26T09:18:13.808Z,100.00
2022-10-26T09:21:13.904Z,100.00
2022-10-26T09:24:05.274Z,100.00
2022-10-26T09:27:02.093Z,100.00
2022-10-26T09:29:49.656Z,100.00
2022-10-26T09:32:39.236Z,100.00
2022-10-26T09:35:27.686Z,98.56
2022-10-26T09:38:33.292Z,99.22
2022-10-26T09:41:32.280Z,100.00
2022-10-26T09:44:29.128Z,97.74
2022-10-26T09:47:32.693Z,97.34
2022-10-26T09:50:34.887Z,98.81
2022-10-26T09:53:19.824Z,98.94
2022-10-26T09:56:08.478Z,97.54
2022-10-26T09:59:05.352Z,98.21
2022-10-26T10:01:50.479Z,96.41
2022-10-26T10:04:35.548Z,94.05
2022-10-26T10:07:20.772Z,97.60
2022-10-26T10:10:15.668Z,98.29
2022-10-26T10:13:15.223Z,97.76
2022-10-26T10:16:18.889Z,97.63
2022-10-26T10:19:03.892Z,97.43
2022-10-26T10:21:50.836Z,92.43
2022-10-26T10:24:37.476Z,88.21
2022-10-26T10:27:23.791Z,83.05
2022-10-26T10:30:30.150Z,82.27
2022-10-26T10:33:15.022Z,81.52
2022-10-26T10:36:00.934Z,82.64
2022-10-26T10:38:48.586Z,84.32
2022-10-26T10:41:36.482Z,83.14
2022-10-26T10:44:27.735Z,80.98
2022-10-26T10:47:23.103Z,80.34
2022-10-26T10:50:13.863Z,79.65
2022-10-26T10:53:22.596Z,79.21
2022-10-26T10:56:28.490Z,78.18
2022-10-26T10:59:30.699Z,79.63
2022-10-26T11:02:32.303Z,78.74
2022-10-26T11:05:26.308Z,78.60
2022-10-26T11:08:30.478Z,79.52
2022-10-26T11:11:44.664Z,79.69
2022-10-26T11:14:41.806Z,77.77
2022-10-26T11:17:36.650Z,77.27
2022-10-26T11:20:26.039Z,77.52
2022-10-26T11:23:21.082Z,77.38
2022-10-26T11:26:11.216Z,75.47
2022-10-26T11:29:10.758Z,76.60
2022-10-26T11:32:06.240Z,75.66
2022-10-26T11:34:58.286Z,76.68
2022-10-26T11:38:23.774Z,75.22
2022-10-26T11:42:00.666Z,72.37
2022-10-26T11:45:01.355Z,77.13
2022-10-26T11:47:55.068Z,77.18
2022-10-26T11:50:44.453Z,76.38
2022-10-26T11:53:45.328Z,76.24
2022-10-26T11:56:34.245Z,75.98
2022-10-26T11:59:22.219Z,75.58
2022-10-26T12:02:16.307Z,74.65
2022-10-26T12:05:16.299Z,74.51
2022-10-26T12:08:11.491Z,77.66
2022-10-26T12:11:02.362Z,78.57
2022-10-26T12:13:53.563Z,77.31
2022-10-26T12:16:48.450Z,76.19
2022-10-26T12:19:45.204Z,75.37
2022-10-26T12:22:34.385Z,74.94
2022-10-26T12:25:21.547Z,76.26
2022-10-26T12:28:35.289Z,76.49
2022-10-26T12:31:33.226Z,75.85
2022-10-26T12:34:48.247Z,76.02
2022-10-26T12:37:37.257Z,76.94
2022-10-26T12:40:39.568Z,77.40
2022-10-26T12:43:24.622Z,76.65
2022-10-26T12:46:12.797Z,74.94
2022-10-26T12:48:59.808Z,73.76
2022-10-26T12:51:45.014Z,72.62
2022-10-26T12:54:41.717Z,74.04
2022-10-26T12:57:40.295Z,75.55
2022-10-26T13:00:27.667Z,73.47
2022-10-26T13:03:18.999Z,70.94
2022-10-26T13:06:25.543Z,68.97
2022-10-26T13:09:30.017Z,67.79
2022-10-26T13:12:15.219Z,66.06
2022-10-26T13:15:04.469Z,66.91
2022-10-26T13:18:01.130Z,65.25
2022-10-26T13:21:11.465Z,64.33
2022-10-26T13:24:06.081Z,62.08
2022-10-26T13:27:16.819Z,64.20
2022-10-26T13:30:05.010Z,62.83
2022-10-26T13:32:55.764Z,60.70
2022-10-26T13:35:42.745Z,62.78
2022-10-26T13:38:32.946Z,65.92
2022-10-26T13:41:34.320Z,63.44
2022-10-26T13:44:26.005Z,62.13
2022-10-26T13:47:20.610Z,63.27
2022-10-26T13:50:08.693Z,65.84
2022-10-26T13:52:59.070Z,62.08
2022-10-26T13:56:00.993Z,60.57
2022-10-26T13:58:55.172Z,61.90
2022-10-26T14:01:40.474Z,60.96
2022-10-26T14:04:27.393Z,62.00
2022-10-26T14:07:23.055Z,61.37
2022-10-26T14:10:24.474Z,61.91
2022-10-26T14:13:15.175Z,63.84
2022-10-26T14:16:00.361Z,63.10
2022-10-26T14:18:46.329Z,62.26
2022-10-26T14:21:31.501Z,63.27
2022-10-26T14:24:47.389Z,63.73
2022-10-26T14:27:38.104Z,64.03
2022-10-26T14:30:26.071Z,74.34
2022-10-26T14:33:19.909Z,66.14
2022-10-26T14:36:05.785Z,69.75
2022-10-26T14:38:57.400Z,66.42
2022-10-26T14:41:43.065Z,65.64
2022-10-26T14:44:29.968Z,68.86
2022-10-26T14:47:27.076Z,69.15
2022-10-26T14:50:23.231Z,68.22
2022-10-26T14:53:16.509Z,67.58
2022-10-26T14:56:01.839Z,76.51
2022-10-26T14:58:47.047Z,72.55
2022-10-26T15:01:35.844Z,67.52
2022-10-26T15:04:37.456Z,68.87
2022-10-26T15:07:22.465Z,68.39
2022-10-26T15:10:36.339Z,69.45
2022-10-26T15:13:33.098Z,67.24
2022-10-26T15:16:20.732Z,68.72
2022-10-26T15:19:22.621Z,71.60
2022-10-26T15:22:22.058Z,71.60
2022-10-26T15:25:07.384Z,75.61
2022-10-26T15:27:53.029Z,74.86
2022-10-26T15:30:38.005Z,77.70
2022-10-26T15:33:22.980Z,79.15
2022-10-26T15:36:07.751Z,79.59
2022-10-26T15:38:52.933Z,80.30
2022-10-26T15:41:46.031Z,82.00
2022-10-26T15:44:31.118Z,81.42
2022-10-26T15:47:19.130Z,82.18
2022-10-26T15:50:04.484Z,83.26
2022-10-26T15:52:55.178Z,79.88
2022-10-26T15:55:40.290Z,77.03
2022-10-26T15:58:26.192Z,76.13
2022-10-26T16:01:17.617Z,75.45
2022-10-26T16:04:02.914Z,74.80
2022-10-26T16:06:48.080Z,74.86
2022-10-26T16:09:33.155Z,73.69
2022-10-26T16:12:18.431Z,74.30
2022-10-26T16:15:06.114Z,74.16
2022-10-26T16:17:52.368Z,74.43
2022-10-26T16:20:37.715Z,74.76
2022-10-26T16:23:22.696Z,75.16
2022-10-26T16:26:08.994Z,75.90
2022-10-26T16:28:54.001Z,76.46
2022-10-26T16:31:39.344Z,75.10
2022-10-26T16:34:24.614Z,75.35
2022-10-26T16:37:09.650Z,74.75
2022-10-26T16:39:54.587Z,75.87
2022-10-26T16:42:43.727Z,76.35
2022-10-26T16:45:28.664Z,79.35
2022-10-26T16:48:15.905Z,81.89
2022-10-26T16:51:08.473Z,83.86
2022-10-26T16:53:55.423Z,83.32
2022-10-26T16:56:42.037Z,85.60
2022-10-26T16:59:26.915Z,83.01
2022-10-26T17:02:14.704Z,83.34
2022-10-26T17:05:02.742Z,83.47
2022-10-26T17:07:51.224Z,85.80
2022-10-26T17:10:36.119Z,89.42
2022-10-26T17:13:21.893Z,89.37
2022-10-26T17:16:10.557Z,88.69
2022-10-26T17:18:55.584Z,89.06
2022-10-26T17:21:41.736Z,90.52
2022-10-26T17:24:26.803Z,90.29
2022-10-26T17:27:11.888Z,90.59
2022-10-26T17:29:56.746Z,92.19
2022-10-26T17:32:41.698Z,92.10
2022-10-26T17:35:26.807Z,91.77
2022-10-26T17:38:11.940Z,94.50
2022-10-26T17:41:01.354Z,95.91
2022-10-26T17:43:48.438Z,95.44
2022-10-26T17:46:34.038Z,96.46
2022-10-26T17:49:21.341Z,97.90
2022-10-26T17:52:08.289Z,99.84
2022-10-26T17:54:53.243Z,100.00
2022-10-26T17:57:38.317Z,100.00
2022-10-26T18:00:23.552Z,100.00
2022-10-26T18:03:08.763Z,100.00
2022-10-26T18:05:53.903Z,100.00
2022-10-26T18:08:39.599Z,100.00
2022-10-26T18:11:27.240Z,100.00
2022-10-26T18:14:13.725Z,98.68
2022-10-26T18:16:58.952Z,95.77
2022-10-26T18:19:44.140Z,94.22
2022-10-26T18:22:29.378Z,93.28
2022-10-26T18:25:14.640Z,93.61
2022-10-26T18:28:00.004Z,92.83
2022-10-26T18:30:44.916Z,92.98
2022-10-26T18:33:30.207Z,93.82
2022-10-26T18:36:17.893Z,93.50
2022-10-26T18:39:03.304Z,93.15
2022-10-26T18:41:48.119Z,93.35
2022-10-26T18:44:33.237Z,92.91
2022-10-26T18:47:18.343Z,93.24
2022-10-26T18:50:03.454Z,92.35
2022-10-26T18:52:48.441Z,92.81
2022-10-26T18:55:33.348Z,94.60
2022-10-26T18:58:18.362Z,93.62
2022-10-26T19:01:10.943Z,94.75
2022-10-26T19:04:01.558Z,93.89
2022-10-26T19:06:47.717Z,94.71
2022-10-26T19:09:32.674Z,95.29
2022-10-26T19:12:17.616Z,94.49
2022-10-26T19:15:02.904Z,95.96
2022-10-26T19:17:47.929Z,96.57
2022-10-26T19:20:33.166Z,97.32
2022-10-26T19:23:18.356Z,97.72
2022-10-26T19:26:04.509Z,98.37
2022-10-26T19:29:01.468Z,97.50
2022-10-26T19:31:50.003Z,97.49
2022-10-26T19:34:35.100Z,97.87
2022-10-26T19:37:21.849Z,98.66
2022-10-26T19:40:08.416Z,98.10
2022-10-26T19:42:53.595Z,96.66
2022-10-26T19:45:38.666Z,96.64
2022-10-26T19:48:24.308Z,96.88
2022-10-26T19:51:09.839Z,98.73
2022-10-26T19:53:57.841Z,98.86
2022-10-26T19:56:45.535Z,100.00
2022-10-26T19:59:30.421Z,100.00
2022-10-26T20:02:15.524Z,100.00
2022-10-26T20:05:00.227Z,100.00
2022-10-26T20:07:45.092Z,100.00
2022-10-26T20:10:30.512Z,100.00
2022-10-26T20:13:15.871Z,100.00
2022-10-26T20:16:01.020Z,100.00
2022-10-26T20:18:47.908Z,100.00
2022-10-26T20:21:35.156Z,100.00
2022-10-26T20:24:20.400Z,100.00
2022-10-26T20:27:05.259Z,100.00
2022-10-26T20:29:50.184Z,100.00
2022-10-26T20:32:35.527Z,100.00
2022-10-26T20:35:20.549Z,100.00
2022-10-26T20:38:07.951Z,100.00
2022-10-26T20:40:58.152Z,100.00
2022-10-26T20:43:43.530Z,100.00
2022-10-26T20:46:28.929Z,100.00
2022-10-26T20:49:14.122Z,100.00
2022-10-26T20:52:22.713Z,100.00
2022-10-26T20:55:27.386Z,100.00
2022-10-26T20:58:38.776Z,100.00
2022-10-26T21:01:28.573Z,100.00
2022-10-26T21:04:13.848Z,100.00
2022-10-26T21:06:58.631Z,100.00
2022-10-26T21:09:43.816Z,100.00
2022-10-26T21:12:29.041Z,100.00
2022-10-26T21:15:14.196Z,100.00
2022-10-26T21:17:59.174Z,100.00
2022-10-26T21:20:44.442Z,100.00
2022-10-26T21:23:34.389Z,100.00
2022-10-26T21:26:19.272Z,100.00
2022-10-26T21:29:04.391Z,100.00
2022-10-26T21:31:49.370Z,100.00
2022-10-26T21:34:34.431Z,100.00
2022-10-26T21:37:19.517Z,100.00
2022-10-26T21:40:04.882Z,100.00
2022-10-26T21:42:51.373Z,100.00
2022-10-26T21:45:36.412Z,100.00
2022-10-26T21:48:21.323Z,100.00
2022-10-26T21:51:10.340Z,100.00
2022-10-26T21:53:55.483Z,100.00
2022-10-26T21:56:40.648Z,100.00
2022-10-26T21:59:25.780Z,100.00
2022-10-26T22:02:10.874Z,100.00
2022-10-26T22:04:55.722Z,100.00
2022-10-26T22:07:40.764Z,100.00
2022-10-26T22:10:26.028Z,100.00
2022-10-26T22:13:11.238Z,100.00
2022-10-26T22:16:11.117Z,100.00
2022-10-26T22:18:58.301Z,100.00
2022-10-26T22:21:43.091Z,100.00
2022-10-26T22:24:28.230Z,100.00
2022-10-26T22:27:13.323Z,100.00
2022-10-26T22:29:58.247Z,100.00
2022-10-26T22:32:43.414Z,100.00
2022-10-26T22:35:29.694Z,100.00
2022-10-26T22:38:14.910Z,100.00
2022-10-26T22:41:00.172Z,100.00
2022-10-26T22:43:45.162Z,100.00
2022-10-26T22:46:30.404Z,100.00
2022-10-26T22:49:15.332Z,100.00
2022-10-26T22:52:00.115Z,100.00
2022-10-26T22:54:45.110Z,100.00
2022-10-26T22:57:30.233Z,100.00
2022-10-26T23:00:15.882Z,100.00
2022-10-26T23:03:00.704Z,100.00
2022-10-26T23:05:47.760Z,100.00
2022-10-26T23:08:32.742Z,100.00
2022-10-26T23:11:20.446Z,100.00
2022-10-26T23:14:05.237Z,100.00
2022-10-26T23:16:50.217Z,100.00
2022-10-26T23:19:35.442Z,100.00
2022-10-26T23:22:20.634Z,100.00
2022-10-26T23:25:06.099Z,100.00
2022-10-26T23:27:51.190Z,100.00
2022-10-26T23:30:37.068Z,100.00
2022-10-26T23:33:22.266Z,100.00
2022-10-26T23:36:07.465Z,100.00
2022-10-26T23:38:52.644Z,100.00
2022-10-26T23:41:37.491Z,100.00
2022-10-26T23:44:22.618Z,100.00
2022-10-26T23:47:07.718Z,100.00
2022-10-26T23:49:52.560Z,100.00
2022-10-26T23:52:37.563Z,100.00
2022-10-26T23:55:22.700Z,100.00
2022-10-26T23:58:07.764Z,100.00
